Time;durP1;ratioP1;P1;durP2;ratioP2;P2;SDS_P1;SDS_P2;PMS_P1;PMS_P2;Temp;Humidity;BMP_temperature;BMP_pressure;BME280_temperature;BME280_humidity;BME280_pressure;Samples;Min_cycle;Max_cycle;Signal;HPM_P1;HPM_P2
2022/01/04 00:02:08;;;;;;;13.20;4.82;;;;;;;6.67;95.30;99875.75;15289327;19;20565;-68
2022/01/04 00:07:10;;;;;;;17.63;4.65;;;;;;;6.60;95.71;99874.75;15288884;19;20041;-68
2022/01/04 00:17:32;;;;;;;16.48;4.90;;;;;;;6.55;96.04;99877.28;15287773;19;20641;-68
2022/01/04 00:22:34;;;;;;;15.38;5.45;;;;;;;6.50;96.26;99871.13;15286577;19;20017;-68
2022/01/04 00:27:35;;;;;;;19.42;5.75;;;;;;;6.49;96.57;99852.88;15287331;19;20007;-68
2022/01/04 00:32:37;;;;;;;15.73;5.07;;;;;;;6.42;96.52;99838.88;15283478;19;20018;-68
2022/01/04 00:37:39;;;;;;;16.90;5.20;;;;;;;6.32;96.84;99839.53;15283754;19;20085;-68
2022/01/04 00:42:41;;;;;;;20.60;6.53;;;;;;;6.27;97.28;99829.06;15285706;19;20090;-68
2022/01/04 00:49:10;;;;;;;22.58;6.28;;;;;;;6.36;97.27;99825.75;15286081;19;20006;-68
2022/01/04 00:53:06;;;;;;;18.35;5.80;;;;;;;6.33;97.34;99820.50;15283755;19;20549;-68
2022/01/04 00:58:08;;;;;;;19.38;6.03;;;;;;;6.28;97.75;99811.75;15285247;19;20074;-68
2022/01/04 01:03:09;;;;;;;18.35;6.60;;;;;;;6.33;97.74;99794.50;15283265;19;20078;-68
2022/01/04 01:08:11;;;;;;;14.40;6.35;;;;;;;6.37;97.81;99785.91;15285398;19;20388;-68
2022/01/04 01:13:14;;;;;;;18.20;7.10;;;;;;;6.37;98.32;99781.59;15282474;19;20066;-68
2022/01/04 01:18:17;;;;;;;20.63;7.32;;;;;;;6.36;98.57;99771.16;15285773;19;20010;-68
2022/01/04 01:23:19;;;;;;;21.67;8.40;;;;;;;6.34;98.81;99768.53;15282969;19;20014;-68
2022/01/04 01:28:22;;;;;;;15.85;6.10;;;;;;;6.39;99.06;99752.16;15284612;19;20069;-68
2022/01/04 01:33:24;;;;;;;22.98;7.20;;;;;;;6.39;98.77;99757.34;15281154;19;20086;-67
2022/01/04 01:38:26;;;;;;;20.70;7.82;;;;;;;6.39;98.53;99747.81;15283291;19;20086;-68
2022/01/04 01:43:29;;;;;;;24.00;7.90;;;;;;;6.38;98.69;99746.06;15280432;19;20085;-68
2022/01/04 01:48:31;;;;;;;19.17;8.10;;;;;;;6.32;98.37;99733.84;15293939;19;20029;-67
2022/01/04 01:53:32;;;;;;;20.73;7.88;;;;;;;6.29;98.61;99738.09;15294708;19;20174;-68
2022/01/04 01:58:34;;;;;;;21.02;7.72;;;;;;;6.24;98.99;99726.75;15297637;19;20022;-67
2022/01/04 02:03:36;;;;;;;22.83;8.55;;;;;;;6.29;98.72;99719.88;15294282;19;20096;-67
2022/01/04 02:08:37;;;;;;;26.92;8.52;;;;;;;6.23;98.71;99709.38;15297114;19;20074;-68
2022/01/04 02:13:39;;;;;;;23.10;9.00;;;;;;;6.17;98.93;99694.56;15291992;19;20015;-68
2022/01/04 02:18:41;;;;;;;19.58;8.10;;;;;;;6.17;99.02;99685.06;15297843;19;20014;-68
2022/01/04 02:23:42;;;;;;;25.00;8.90;;;;;;;6.13;99.16;99682.38;15292659;19;20070;-68
2022/01/04 02:28:46;;;;;;;20.85;8.93;;;;;;;6.16;99.07;99672.91;15296094;19;20021;-68
2022/01/04 02:33:48;;;;;;;24.23;8.57;;;;;;;6.18;99.26;99675.53;15291235;19;20015;-68
2022/01/04 02:38:52;;;;;;;19.85;9.57;;;;;;;6.14;99.65;99666.81;15294557;19;20078;-68
2022/01/04 02:43:54;;;;;;;22.10;9.85;;;;;;;6.14;99.30;99663.31;15291449;19;20353;-68
2022/01/04 02:48:56;;;;;;;24.58;9.57;;;;;;;6.06;99.56;99657.97;15293911;19;20014;-68
2022/01/04 02:53:57;;;;;;;21.80;9.75;;;;;;;6.06;99.58;99655.38;15291084;19;20045;-68
2022/01/04 02:59:03;;;;;;;28.48;9.90;;;;;;;6.01;99.58;99638.84;15291377;19;20018;-68
2022/01/04 03:04:07;;;;;;;28.05;10.15;;;;;;;6.09;99.65;99629.44;15290167;19;20101;-68
2022/01/04 03:09:09;;;;;;;23.85;10.18;;;;;;;6.01;99.73;99629.31;15291055;19;20529;-68
2022/01/04 03:14:11;;;;;;;29.05;9.73;;;;;;;6.05;99.94;99621.56;15288348;19;20086;-68
2022/01/04 03:19:13;;;;;;;24.88;10.32;;;;;;;5.96;100.00;99622.25;15293262;19;20081;-68
2022/01/04 03:24:15;;;;;;;25.67;11.30;;;;;;;5.95;100.00;99599.75;15289622;19;20076;-68
2022/01/04 03:29:17;;;;;;;26.15;10.30;;;;;;;5.97;100.00;99598.06;15292841;19;20093;-68
2022/01/04 03:34:18;;;;;;;28.27;10.68;;;;;;;5.94;100.00;99582.41;15287703;19;20467;-68
2022/01/04 03:39:20;;;;;;;36.28;11.40;;;;;;;5.97;100.00;99572.94;15290451;19;20014;-68
2022/01/04 03:44:22;;;;;;;26.35;10.70;;;;;;;6.00;100.00;99564.34;15287111;19;20125;-68
2022/01/04 03:49:24;;;;;;;26.90;10.38;;;;;;;6.02;100.00;99560.06;15290392;19;20518;-68
2022/01/04 03:54:26;;;;;;;29.92;11.63;;;;;;;6.08;100.00;99549.75;15286217;19;20017;-68
2022/01/04 03:59:27;;;;;;;30.48;11.68;;;;;;;6.06;100.00;99541.03;15289869;19;20045;-68
2022/01/04 04:04:29;;;;;;;25.10;10.77;;;;;;;6.02;100.00;99539.25;15284208;19;20333;-68
2022/01/04 04:09:34;;;;;;;23.13;10.80;;;;;;;5.95;100.00;99527.84;15288599;19;20078;-68
2022/01/04 04:14:37;;;;;;;29.33;11.07;;;;;;;5.93;100.00;99513.06;15285675;19;20081;-68
2022/01/04 04:19:50;;;;;;;27.13;11.15;;;;;;;5.95;100.00;99512.25;15289944;19;20014;-68
2022/01/04 04:24:51;;;;;;;24.08;10.68;;;;;;;5.93;100.00;99497.50;15284557;19;20863;-68
2022/01/04 04:29:53;;;;;;;25.70;11.50;;;;;;;5.91;100.00;99481.88;15287715;19;20090;-68
2022/01/04 04:34:55;;;;;;;25.70;10.40;;;;;;;5.91;100.00;99473.22;15283279;19;20025;-68
2022/01/04 04:39:56;;;;;;;28.75;10.60;;;;;;;5.92;100.00;99452.47;15286029;19;20039;-68
2022/01/04 04:44:58;;;;;;;25.50;11.65;;;;;;;6.01;100.00;99459.56;15283051;19;20018;-68
2022/01/04 04:50:00;;;;;;;27.80;11.80;;;;;;;6.06;100.00;99452.69;15286699;19;20602;-68
2022/01/04 04:55:06;;;;;;;25.30;10.27;;;;;;;6.08;100.00;99438.00;15282393;19;20025;-68
2022/01/04 05:00:10;;;;;;;27.02;10.85;;;;;;;6.07;100.00;99427.59;15285320;19;20031;-67
2022/01/04 05:05:12;;;;;;;26.13;11.10;;;;;;;6.03;100.00;99431.84;15283554;19;20025;-68
2022/01/04 05:10:13;;;;;;;29.98;11.90;;;;;;;6.06;100.00;99433.63;15284556;19;20077;-68
2022/01/04 05:15:15;;;;;;;26.80;11.32;;;;;;;6.09;100.00;99413.75;15280846;19;20164;-68
2022/01/04 05:20:17;;;;;;;29.55;11.38;;;;;;;6.11;100.00;99411.16;15286335;19;20082;-68
2022/01/04 05:25:18;;;;;;;25.60;10.10;;;;;;;6.17;100.00;99424.22;15294047;19;20082;-68
2022/01/04 05:30:20;;;;;;;28.13;11.95;;;;;;;6.21;100.00;99409.56;15299584;19;20090;-68
2022/01/04 05:35:21;;;;;;;28.60;11.63;;;;;;;6.26;100.00;99407.88;15294079;19;21454;-68
2022/01/04 05:40:23;;;;;;;27.00;10.63;;;;;;;6.27;100.00;99401.84;15299186;19;20014;-68
2022/01/04 05:45:25;;;;;;;25.85;12.15;;;;;;;6.33;100.00;99388.91;15293297;19;20364;-68
2022/01/04 05:50:29;;;;;;;30.40;12.00;;;;;;;6.28;100.00;99375.00;15298896;19;20888;-68
2022/01/04 05:55:31;;;;;;;30.77;11.30;;;;;;;6.40;100.00;99356.94;15292668;19;20010;-68
2022/01/04 06:00:32;;;;;;;24.45;11.43;;;;;;;6.37;100.00;99362.09;15299263;19;20380;-66
2022/01/04 06:05:35;;;;;;;23.58;10.63;;;;;;;6.45;100.00;99367.38;15293328;19;20011;-68
2022/01/04 06:10:40;;;;;;;29.15;11.60;;;;;;;6.35;100.00;99371.59;15296927;19;20719;-68
2022/01/04 06:15:41;;;;;;;27.35;11.77;;;;;;;6.42;100.00;99354.34;15292244;19;20019;-68
2022/01/04 06:20:44;;;;;;;24.42;11.13;;;;;;;6.35;100.00;99337.78;15296750;19;20077;-68
2022/01/04 06:25:52;;;;;;;32.50;12.13;;;;;;;6.34;100.00;99336.06;15290467;19;20010;-69
2022/01/04 06:30:54;;;;;;;27.98;12.43;;;;;;;6.38;100.00;99324.84;15296141;19;20491;-68
2022/01/04 06:35:56;;;;;;;24.83;10.23;;;;;;;6.38;100.00;99324.84;15287120;19;20010;-68
2022/01/04 06:40:57;;;;;;;26.45;11.40;;;;;;;6.35;100.00;99330.00;15296291;19;20035;-68
2022/01/04 06:45:59;;;;;;;23.30;12.30;;;;;;;6.35;100.00;99328.28;15290797;19;20097;-68
2022/01/04 06:51:01;;;;;;;24.73;11.30;;;;;;;6.41;100.00;99313.59;15284833;19;20014;-68
2022/01/04 06:56:03;;;;;;;26.27;11.77;;;;;;;6.42;100.00;99329.22;15281653;19;20510;-68
2022/01/04 07:01:05;;;;;;;29.48;12.45;;;;;;;6.52;100.00;99323.25;15289056;19;20066;-66
2022/01/04 07:06:07;;;;;;;31.02;11.52;;;;;;;6.49;100.00;99322.38;15293668;19;20018;-68
2022/01/04 07:11:08;;;;;;;24.77;11.73;;;;;;;6.57;100.00;99312.03;15292777;19;20088;-68
2022/01/04 07:16:10;;;;;;;23.10;10.60;;;;;;;6.49;100.00;99307.63;15289152;19;20032;-68
2022/01/04 07:21:13;;;;;;;30.63;12.77;;;;;;;6.39;100.00;99300.56;15292562;19;20097;-66
2022/01/04 07:26:16;;;;;;;26.85;11.85;;;;;;;6.39;100.00;99303.19;15295681;19;20085;-67
2022/01/04 07:31:19;;;;;;;26.00;12.60;;;;;;;6.37;100.00;99297.97;15285864;19;20017;-66
2022/01/04 07:36:21;;;;;;;33.15;12.15;;;;;;;6.38;100.00;99298.84;15286522;19;20351;-67
2022/01/04 07:41:23;;;;;;;22.75;10.27;;;;;;;6.44;100.00;99298.91;15295332;19;20013;-67
2022/01/04 07:46:25;;;;;;;27.35;11.93;;;;;;;6.45;100.00;99290.22;15293618;19;20017;-67
2022/01/04 07:51:28;;;;;;;35.25;10.93;;;;;;;6.36;100.00;99284.94;15294881;19;20014;-67
2022/01/04 07:56:30;;;;;;;27.70;11.27;;;;;;;6.39;100.00;99278.91;15292974;19;20430;-67
2022/01/04 08:01:31;;;;;;;23.30;10.52;;;;;;;6.41;100.00;99282.41;15296521;19;20086;-67
2022/01/04 08:06:33;;;;;;;21.63;10.20;;;;;;;6.40;100.00;99276.34;15292871;19;20565;-67
2022/01/04 08:11:35;;;;;;;29.33;11.68;;;;;;;6.42;100.00;99269.41;15280492;19;20084;-66
2022/01/04 08:16:36;;;;;;;26.45;11.02;;;;;;;6.41;100.00;99267.69;15284762;19;20014;-67
2022/01/04 08:21:38;;;;;;;31.40;11.63;;;;;;;6.42;100.00;99256.41;15281294;19;20058;-67
2022/01/04 08:26:40;;;;;;;24.90;10.80;;;;;;;6.48;100.00;99248.66;15283863;19;20031;-66
2022/01/04 08:31:41;;;;;;;20.48;10.50;;;;;;;6.50;100.00;99252.16;15282652;19;20009;-67
2022/01/04 08:36:43;;;;;;;25.35;10.57;;;;;;;6.53;100.00;99238.28;15288837;19;20023;-67
2022/01/04 08:41:46;;;;;;;25.38;11.35;;;;;;;6.52;99.67;99237.44;15283099;19;20011;-67
2022/01/04 08:46:49;;;;;;;24.55;10.02;;;;;;;6.58;99.82;99226.22;15291492;19;20477;-67
2022/01/04 08:51:51;;;;;;;21.55;9.77;;;;;;;6.65;99.20;99229.72;15291595;19;20038;-66
2022/01/04 08:56:54;;;;;;;27.00;10.23;;;;;;;6.64;99.18;99215.84;15292107;19;20558;-67
2022/01/04 09:01:55;;;;;;;23.17;10.43;;;;;;;6.64;99.88;99215.84;15218650;19;20118;-67
2022/01/04 09:06:57;;;;;;;30.77;11.63;;;;;;;6.69;99.19;99215.88;15240666;19;20011;-67
2022/01/04 09:11:59;;;;;;;31.27;11.63;;;;;;;6.67;99.32;99228.03;15283434;19;20074;-65
2022/01/04 09:22:21;;;;;;;20.08;10.20;;;;;;;6.77;99.08;99223.75;15280286;19;20098;-67
2022/01/04 09:27:23;;;;;;;25.48;11.10;;;;;;;6.80;98.78;99229.88;15284255;19;20013;-67
2022/01/04 09:32:25;;;;;;;23.00;11.35;;;;;;;6.72;100.00;99227.22;15284919;19;20022;-68
2022/01/04 09:37:27;;;;;;;25.38;11.77;;;;;;;6.65;100.00;99230.63;15282358;19;20013;-69
2022/01/04 09:42:30;;;;;;;27.65;11.27;;;;;;;6.60;100.00;99231.44;15282518;19;20014;-68
2022/01/04 09:47:31;;;;;;;21.35;10.48;;;;;;;6.63;100.00;99234.06;15288981;19;20113;-67
2022/01/04 09:52:35;;;;;;;21.13;9.40;;;;;;;6.57;100.00;99239.22;15284822;19;20011;-68
2022/01/04 09:57:36;;;;;;;21.85;8.80;;;;;;;6.49;100.00;99240.00;15290251;19;20091;-67
2022/01/04 10:02:38;;;;;;;22.77;9.82;;;;;;;6.55;100.00;99237.47;15285022;19;20035;-65
2022/01/04 10:07:40;;;;;;;18.20;9.07;;;;;;;6.54;100.00;99243.53;15293400;19;20459;-68
2022/01/04 10:13:05;;;;;;;18.88;8.55;;;;;;;6.61;100.00;99233.19;15299234;19;20047;-67
2022/01/04 10:18:12;;;;;;;22.65;8.43;;;;;;;6.60;100.00;99278.25;15303145;19;20106;-67
2022/01/04 10:23:22;;;;;;;6.03;2.85;;;;;;;5.88;94.63;99267.94;15297744;19;20098;-68
2022/01/04 10:28:32;;;;;;;;;;;;;;;5.65;96.59;99258.16;15299590;19;20007;-69
2022/01/04 10:33:36;;;;;;;2.92;1.20;;;;;;;5.36;98.54;99230.09;15297998;19;20445;-69
2022/01/04 10:38:40;;;;;;;3.38;1.60;;;;;;;5.34;98.65;99213.59;15298589;19;20007;-69
2022/01/04 10:43:50;;;;;;;2.97;1.17;;;;;;;5.46;99.13;99208.59;15295426;19;20029;-70
2022/01/04 10:48:52;;;;;;;10.52;2.35;;;;;;;5.60;99.97;99202.66;15301494;19;20024;-69
2022/01/04 10:53:57;;;;;;;6.88;2.30;;;;;;;5.71;99.81;99200.22;15297660;19;20680;-69
2022/01/04 10:59:03;;;;;;;6.68;2.08;;;;;;;5.68;99.51;99200.19;15302104;19;20018;-69
2022/01/04 11:04:15;;;;;;;9.07;2.03;;;;;;;5.75;99.67;99191.59;15300455;19;20021;-71
2022/01/04 11:09:19;;;;;;;4.35;1.55;;;;;;;5.76;99.56;99189.00;15298770;19;20638;-69
2022/01/04 11:14:20;;;;;;;8.00;2.50;;;;;;;5.73;99.97;99196.75;15296009;19;20021;-70
2022/01/04 11:19:23;;;;;;;9.38;2.50;;;;;;;5.72;100.00;99194.16;15294480;19;20409;-69
2022/01/04 11:24:25;;;;;;;9.55;2.88;;;;;;;5.73;100.00;99193.31;15293905;19;20019;-70
2022/01/04 11:29:31;;;;;;;10.38;3.10;;;;;;;5.82;100.00;99185.59;15296719;19;20007;-71
2022/01/04 11:34:49;;;;;;;9.32;3.00;;;;;;;5.89;100.00;99192.63;15293003;19;20022;-67
2022/01/04 11:39:52;;;;;;;8.75;3.40;;;;;;;5.95;100.00;99197.00;15297688;19;20070;-67
2022/01/04 11:44:53;;;;;;;9.00;3.00;;;;;;;6.00;100.00;99184.97;15293671;19;20027;-68
2022/01/04 11:50:20;;;;;;;9.02;3.13;;;;;;;5.94;100.00;99187.47;15298722;19;20482;-68
2022/01/04 11:55:36;;;;;;;6.75;3.13;;;;;;;6.03;100.00;99190.19;15190757;19;2004250;-68
2022/01/04 12:00:43;;;;;;;7.03;2.38;;;;;;;6.03;100.00;99195.38;15292602;19;20549;-64
2022/01/04 12:05:59;;;;;;;5.72;2.38;;;;;;;6.01;100.00;99197.97;15296225;19;20486;-69
2022/01/04 12:11:01;;;;;;;11.43;2.50;;;;;;;6.08;100.00;99198.03;15289566;19;20082;-68
2022/01/04 12:16:07;;;;;;;10.38;2.60;;;;;;;6.08;100.00;99204.13;15289979;19;20035;-67
2022/01/04 12:21:14;;;;;;;4.93;2.20;;;;;;;6.10;100.00;99209.31;15288896;19;20013;-67
2022/01/04 12:26:15;;;;;;;12.68;1.92;;;;;;;5.99;99.85;99220.47;15293484;19;20027;-67
2022/01/04 12:31:19;;;;;;;4.15;1.67;;;;;;;5.75;98.97;99213.25;15287741;19;20021;-67
2022/01/04 12:36:24;;;;;;;4.70;1.10;;;;;;;5.66;98.57;99224.41;15289695;19;20010;-67
2022/01/04 12:41:26;;;;;;;2.97;1.05;;;;;;;5.59;99.16;99224.31;15283237;19;20073;-67
2022/01/04 12:46:38;;;;;;;2.22;0.75;;;;;;;5.54;98.71;99241.53;15291835;19;20027;-67
2022/01/04 12:51:44;;;;;;;1.48;0.95;;;;;;;5.42;98.27;99242.25;15290226;19;20010;-67
2022/01/04 12:57:21;;;;;;;4.35;0.82;;;;;;;5.42;98.72;99247.44;15290809;19;20022;-65
2022/01/04 13:02:26;;;;;;;1.80;0.82;;;;;;;5.16;99.28;99262.69;15290989;19;20027;-67
2022/01/04 13:07:31;;;;;;;6.28;1.10;;;;;;;5.01;99.24;99253.81;15291829;19;20014;-67
2022/01/04 13:12:35;;;;;;;3.08;1.10;;;;;;;4.99;98.73;99275.41;15288815;19;20490;-68
2022/01/04 13:17:45;;;;;;;2.88;1.27;;;;;;;4.85;99.06;99275.16;15292045;19;20025;-68
2022/01/04 13:22:47;;;;;;;3.67;1.50;;;;;;;4.86;99.27;99269.13;15285518;19;20435;-68
2022/01/04 13:27:48;;;;;;;1.67;0.95;;;;;;;4.76;99.51;99273.31;15290411;19;20102;-68
2022/01/04 13:32:54;;;;;;;2.08;0.98;;;;;;;4.80;99.68;99282.88;15284818;19;20094;-67
2022/01/04 13:38:00;;;;;;;1.08;0.70;;;;;;;4.69;99.33;99292.22;15284411;19;20027;-67
2022/01/04 13:43:26;;;;;;;0.32;0.32;;;;;;;4.62;99.76;99301.59;15290472;19;20015;-68
2022/01/04 13:48:31;;;;;;;0.60;0.32;;;;;;;4.54;99.80;99308.38;15307469;19;20082;-67
2022/01/04 13:53:41;;;;;;;0.43;0.43;;;;;;;4.58;100.00;99320.56;15299679;19;20029;-68
2022/01/04 13:58:46;;;;;;;4.43;0.47;;;;;;;4.46;100.00;99325.50;15304409;19;20034;-69
2022/01/04 14:03:49;;;;;;;2.45;0.47;;;;;;;4.15;99.49;99301.63;15296456;19;20018;-70
2022/01/04 14:08:50;;;;;;;1.45;0.60;;;;;;;4.18;100.00;99312.03;15293321;19;20411;-70
2022/01/04 14:13:52;;;;;;;1.13;0.30;;;;;;;4.09;100.00;99304.09;15285225;19;20014;-70
2022/01/04 14:19:09;;;;;;;2.58;0.60;;;;;;;4.03;99.90;99300.53;15296306;19;20466;-69
2022/01/04 14:24:29;;;;;;;0.57;0.32;;;;;;;4.07;99.91;99297.16;15291258;19;20070;-69
2022/01/04 14:29:34;;;;;;;2.53;0.80;;;;;;;4.12;99.54;99301.56;15289295;19;20018;-69
2022/01/04 14:34:37;;;;;;;3.45;1.00;;;;;;;4.00;98.55;99316.00;15290194;19;20500;-69
2022/01/04 14:39:39;;;;;;;4.47;1.00;;;;;;;4.03;98.22;99313.47;15298779;19;20482;-69
2022/01/04 14:44:41;;;;;;;2.60;0.80;;;;;;;3.95;98.38;99321.94;15299171;19;20438;-68
2022/01/04 14:49:43;;;;;;;1.73;0.63;;;;;;;3.94;98.65;99325.38;15303626;19;20018;-69
2022/01/04 14:54:44;;;;;;;4.15;1.10;;;;;;;3.84;98.11;99335.56;15294196;19;20514;-67
2022/01/04 14:59:46;;;;;;;4.03;1.48;;;;;;;3.83;98.57;99343.28;15304664;19;20014;-67
2022/01/04 15:04:48;;;;;;;2.40;0.90;;;;;;;3.92;98.20;99332.22;15293254;19;20047;-68
2022/01/04 15:09:49;;;;;;;5.65;1.05;;;;;;;3.96;98.20;99345.25;15293025;19;20018;-68
2022/01/04 15:14:51;;;;;;;5.50;1.33;;;;;;;3.83;98.67;99353.66;15293872;19;20083;-68
2022/01/04 15:19:53;;;;;;;5.78;1.17;;;;;;;3.84;98.40;99351.09;15293741;19;20486;-68
2022/01/04 15:24:54;;;;;;;5.15;1.20;;;;;;;3.78;98.39;99350.06;15294789;19;20066;-68
2022/01/04 15:29:56;;;;;;;3.03;1.02;;;;;;;3.77;98.31;99353.50;15296765;19;20014;-68
2022/01/04 15:34:59;;;;;;;9.25;2.25;;;;;;;3.71;98.04;99349.94;15295435;19;20026;-69
2022/01/04 15:40:01;;;;;;;4.53;1.10;;;;;;;3.70;98.38;99358.53;15289865;19;20014;-68
2022/01/04 15:45:05;;;;;;;2.55;0.88;;;;;;;3.64;98.02;99373.06;15280449;19;20815;-69
2022/01/04 15:50:08;;;;;;;5.43;1.55;;;;;;;3.66;97.67;99379.16;15294512;19;20014;-69
2022/01/04 15:55:10;;;;;;;8.25;1.42;;;;;;;3.50;97.17;99385.72;15290101;19;20014;-69
2022/01/04 16:00:12;;;;;;;6.05;1.60;;;;;;;3.46;97.15;99395.09;15288825;19;20014;-66
2022/01/04 16:05:14;;;;;;;5.15;1.17;;;;;;;3.25;96.53;99400.66;15292782;19;20515;-68
2022/01/04 16:10:16;;;;;;;5.72;1.20;;;;;;;3.10;97.02;99413.22;15295789;19;20098;-68
2022/01/04 16:15:21;;;;;;;1.75;1.00;;;;;;;2.99;97.30;99426.72;15291783;19;20022;-68
2022/01/04 16:25:43;;;;;;;4.47;1.30;;;;;;;2.80;97.59;99438.28;15290174;19;20018;-68
2022/01/04 16:30:46;;;;;;;13.05;3.08;;;;;;;2.70;97.95;99431.13;15291946;19;20010;-69
2022/01/04 16:35:48;;;;;;;7.40;2.60;;;;;;;2.69;98.39;99434.56;15293054;19;20164;-69
2022/01/04 16:40:52;;;;;;;6.55;1.63;;;;;;;2.64;98.20;99437.03;15293928;19;20023;-68
2022/01/04 16:45:54;;;;;;;8.77;2.85;;;;;;;2.58;98.14;99447.19;15289074;19;20430;-68
2022/01/04 16:50:55;;;;;;;6.53;1.60;;;;;;;2.50;98.09;99461.59;15293612;19;20042;-73
2022/01/04 16:55:57;;;;;;;7.35;2.58;;;;;;;2.47;97.98;99470.13;15282353;19;20017;-73
2022/01/04 17:01:06;;;;;;;7.05;1.25;;;;;;;2.46;97.85;99460.66;15286016;19;20017;-70
2022/01/04 17:06:08;;;;;;;9.27;2.00;;;;;;;2.39;97.49;99455.25;15286163;19;20260;-72
2022/01/04 17:11:13;;;;;;;8.90;1.95;;;;;;;2.30;97.46;99459.31;15291107;19;20018;-73
2022/01/04 17:16:18;;;;;;;10.98;2.95;;;;;;;2.32;97.57;99464.53;15278575;19;20098;-72
2022/01/04 17:21:22;;;;;;;6.80;2.13;;;;;;;2.30;97.52;99467.06;15282656;19;20387;-72
2022/01/04 17:26:24;;;;;;;8.73;2.67;;;;;;;2.28;98.12;99462.69;15284040;19;20078;-73
2022/01/04 17:31:26;;;;;;;8.48;2.85;;;;;;;2.21;98.47;99465.94;15290472;19;20015;-68
2022/01/04 17:36:27;;;;;;;6.38;2.08;;;;;;;2.20;98.45;99464.19;15288642;19;20395;-67
2022/01/04 17:41:31;;;;;;;9.25;2.03;;;;;;;2.30;98.54;99459.31;15284184;19;20073;-67
2022/01/04 17:46:32;;;;;;;10.35;1.77;;;;;;;2.28;98.51;99458.41;15282806;19;20078;-67
2022/01/04 17:51:35;;;;;;;3.78;1.63;;;;;;;2.25;98.30;99460.91;15282917;19;20634;-67
2022/01/04 17:56:37;;;;;;;8.60;2.20;;;;;;;2.23;98.02;99453.94;15280998;19;20021;-67
2022/01/04 18:01:39;;;;;;;6.25;1.63;;;;;;;2.25;98.29;99457.44;15282450;19;20010;-67
2022/01/04 18:06:47;;;;;;;3.95;1.60;;;;;;;2.19;97.94;99462.41;15286392;19;20011;-68
2022/01/04 18:11:49;;;;;;;10.15;1.48;;;;;;;2.25;98.10;99463.50;15283759;19;20411;-67
2022/01/04 18:16:52;;;;;;;5.80;1.60;;;;;;;2.21;98.09;99461.63;15275867;19;20017;-68
2022/01/04 18:21:53;;;;;;;5.43;1.63;;;;;;;2.19;98.26;99468.47;15283302;19;20020;-67
2022/01/04 18:26:55;;;;;;;7.15;1.30;;;;;;;2.07;98.46;99484.47;15273244;19;20103;-67
2022/01/04 18:31:57;;;;;;;4.60;1.33;;;;;;;2.11;98.45;99475.97;15295582;19;20014;-67
2022/01/04 18:36:58;;;;;;;10.70;1.85;;;;;;;2.01;98.34;99483.41;15295463;19;20678;-67
2022/01/04 18:42:00;;;;;;;7.97;1.77;;;;;;;1.98;98.46;99480.72;15272708;19;20524;-67
2022/01/04 18:47:06;;;;;;;3.38;1.35;;;;;;;2.04;98.53;99486.97;15269622;19;20535;-68
2022/01/04 18:52:08;;;;;;;4.90;1.30;;;;;;;1.88;98.94;99479.59;15278359;19;20487;-67
2022/01/04 18:57:09;;;;;;;9.75;1.48;;;;;;;1.93;98.94;99478.00;15275837;19;20002;-67
2022/01/04 19:02:11;;;;;;;7.05;1.40;;;;;;;1.91;99.04;99477.09;15276942;19;20600;-67
2022/01/04 19:07:13;;;;;;;8.48;1.58;;;;;;;1.87;98.60;99476.09;15272774;19;20039;-67
2022/01/04 19:12:15;;;;;;;13.27;1.30;;;;;;;1.95;98.03;99478.91;15271926;19;20017;-68
2022/01/04 19:17:17;;;;;;;5.68;2.05;;;;;;;1.97;97.90;99478.97;15273536;19;20090;-68
2022/01/04 19:22:18;;;;;;;8.50;1.50;;;;;;;1.96;97.48;99469.50;15275533;19;20680;-68
2022/01/04 19:27:20;;;;;;;7.63;1.45;;;;;;;1.93;97.36;99468.53;15276255;19;21223;-68
2022/01/04 19:37:29;;;;;;;4.88;1.80;;;;;;;1.74;98.32;99473.97;15273810;19;20019;-68
2022/01/04 19:42:31;;;;;;;4.50;1.05;;;;;;;1.68;99.02;99478.94;15269741;19;20146;-68
2022/01/04 19:47:33;;;;;;;8.05;1.60;;;;;;;1.64;99.42;99488.28;15277029;19;20010;-68
2022/01/04 19:52:34;;;;;;;5.13;2.10;;;;;;;1.67;99.76;99492.69;15274067;19;20018;-68
2022/01/04 19:57:36;;;;;;;8.52;2.17;;;;;;;1.70;99.48;99488.50;15273097;19;20089;-69
2022/01/04 20:02:38;;;;;;;10.10;2.10;;;;;;;1.64;99.79;99490.00;15265689;19;20015;-68
2022/01/04 20:07:41;;;;;;;7.50;2.53;;;;;;;1.67;99.95;99487.53;15271389;19;20018;-68
2022/01/04 20:12:55;;;;;;;9.60;2.38;;;;;;;1.73;99.57;99487.72;15270803;19;20037;-68
2022/01/04 20:17:57;;;;;;;9.93;2.30;;;;;;;1.80;99.17;99486.19;15271904;19;20027;-68
2022/01/04 20:22:59;;;;;;;5.43;1.40;;;;;;;1.88;98.95;99487.31;15269315;19;20018;-68
2022/01/04 20:28:01;;;;;;;8.98;1.70;;;;;;;1.87;98.84;99490.72;15258100;19;20106;-68
2022/01/04 20:33:03;;;;;;;4.90;1.63;;;;;;;1.86;98.16;99489.88;15270031;19;20014;-68
2022/01/04 20:38:05;;;;;;;5.18;1.70;;;;;;;1.88;97.49;99490.78;15269852;19;20897;-68
2022/01/04 20:43:07;;;;;;;4.45;1.08;;;;;;;1.85;97.79;99500.13;15260201;19;20006;-68
2022/01/04 20:48:09;;;;;;;8.88;1.67;;;;;;;1.76;97.67;99499.00;15269730;19;20016;-68
2022/01/04 20:53:11;;;;;;;9.63;1.40;;;;;;;1.88;97.02;99498.53;15268038;19;20099;-68
2022/01/04 20:58:13;;;;;;;7.28;1.95;;;;;;;1.80;97.10;99499.97;15268275;19;20007;-68
2022/01/04 21:03:15;;;;;;;9.57;1.92;;;;;;;1.88;96.78;99503.69;15273731;19;20031;-68
2022/01/04 21:08:17;;;;;;;4.70;1.30;;;;;;;1.89;96.60;99505.44;15289435;19;20003;-68
2022/01/04 21:13:19;;;;;;;9.02;1.48;;;;;;;1.79;96.41;99503.41;15288478;19;20069;-68
2022/01/04 21:18:20;;;;;;;10.13;1.70;;;;;;;1.75;96.28;99506.69;15287260;19;20018;-68
2022/01/04 21:23:24;;;;;;;9.80;1.60;;;;;;;1.73;96.49;99508.38;15288464;19;20011;-68
2022/01/04 21:28:25;;;;;;;8.90;1.15;;;;;;;1.69;96.58;99502.22;15287423;19;20082;-68
2022/01/04 21:33:27;;;;;;;6.78;1.50;;;;;;;1.73;95.98;99498.91;15290029;19;20082;-68
2022/01/04 21:38:29;;;;;;;9.15;1.40;;;;;;;1.74;95.80;99499.78;15288297;19;20006;-69
2022/01/04 21:43:30;;;;;;;3.28;1.23;;;;;;;1.75;96.01;99504.13;15285462;19;20015;-68
2022/01/04 21:48:38;;;;;;;7.75;1.42;;;;;;;1.68;96.00;99504.75;15288649;19;20577;-68
2022/01/04 21:53:40;;;;;;;3.05;1.10;;;;;;;1.66;96.35;99516.72;15286089;19;20724;-69
2022/01/04 21:58:42;;;;;;;9.00;1.90;;;;;;;1.56;96.44;99506.13;15289696;19;20399;-69
2022/01/04 22:03:46;;;;;;;6.03;1.55;;;;;;;1.48;96.97;99509.25;15291002;19;20015;-69
2022/01/04 22:08:47;;;;;;;9.05;1.80;;;;;;;1.39;97.58;99508.13;15304554;19;20089;-68
2022/01/04 22:13:49;;;;;;;8.95;1.33;;;;;;;1.46;97.04;99522.13;15299479;19;20024;-68
2022/01/04 22:18:51;;;;;;;10.13;1.85;;;;;;;1.37;97.11;99519.22;15303910;19;20021;-69
2022/01/04 22:24:12;;;;;;;6.07;1.40;;;;;;;1.32;97.64;99528.50;15297964;19;20010;-69
2022/01/04 22:29:14;;;;;;;9.63;1.38;;;;;;;1.25;97.56;99530.00;15302795;19;20029;-69
2022/01/04 22:34:19;;;;;;;8.32;1.95;;;;;;;1.28;97.28;99529.25;15297068;19;20014;-69
2022/01/04 22:39:21;;;;;;;5.90;1.52;;;;;;;1.15;97.65;99533.94;15301913;19;20081;-68
2022/01/04 22:44:23;;;;;;;8.32;1.73;;;;;;;1.11;97.96;99539.84;15296407;19;20478;-68
2022/01/04 22:49:24;;;;;;;10.43;1.50;;;;;;;1.19;97.98;99550.44;15301060;19;20006;-69
2022/01/04 22:54:26;;;;;;;12.00;2.15;;;;;;;1.09;98.44;99549.22;15295356;19;20423;-69
2022/01/04 22:59:27;;;;;;;12.35;1.85;;;;;;;1.00;98.16;99561.78;15302241;19;20017;-68
2022/01/04 23:04:29;;;;;;;15.27;1.48;;;;;;;0.98;98.38;99556.56;15290102;19;20384;-68
2022/01/04 23:09:31;;;;;;;8.18;1.40;;;;;;;0.95;98.71;99555.59;15294402;19;20018;-68
2022/01/04 23:14:34;;;;;;;4.38;1.60;;;;;;;0.96;98.11;99562.50;15285589;19;20014;-69
2022/01/04 23:19:35;;;;;;;4.80;1.27;;;;;;;0.99;97.81;99552.28;15292808;19;20082;-69
2022/01/04 23:24:38;;;;;;;15.43;1.60;;;;;;;1.02;97.43;99536.91;15288813;19;20017;-69
2022/01/04 23:29:40;;;;;;;8.15;1.17;;;;;;;0.99;96.87;99547.13;15292592;19;20113;-68
2022/01/04 23:34:41;;;;;;;10.02;1.33;;;;;;;1.00;96.70;99554.91;15288982;19;20090;-69
2022/01/04 23:39:43;;;;;;;12.02;1.70;;;;;;;0.99;96.48;99550.59;15298914;19;20006;-68
2022/01/04 23:44:45;;;;;;;5.97;1.40;;;;;;;0.99;96.54;99536.81;15295498;19;20373;-68
2022/01/04 23:49:47;;;;;;;13.27;2.08;;;;;;;0.94;96.65;99535.78;15291222;19;20039;-68